createdAt,value
2022-12-08T00:06:16.910Z,4.47
2022-12-08T00:16:18.280Z,4.44
2022-12-08T00:26:19.703Z,4.41
2022-12-08T00:36:21.189Z,4.34
2022-12-08T00:46:22.613Z,4.33
2022-12-08T00:56:24.285Z,4.32
2022-12-08T01:06:25.653Z,4.29
2022-12-08T01:16:29.590Z,4.32
2022-12-08T01:26:31.047Z,4.26
2022-12-08T01:36:36.843Z,4.23
2022-12-08T01:46:42.948Z,4.24
2022-12-08T01:57:21.587Z,4.23
2022-12-08T02:07:23.371Z,4.28
2022-12-08T02:18:02.249Z,4.24
2022-12-08T02:28:29.210Z,4.25
2022-12-08T02:38:57.514Z,4.25
2022-12-08T02:48:59.287Z,4.30
2022-12-08T02:59:22.521Z,4.35
2022-12-08T03:09:39.809Z,4.35
2022-12-08T03:19:43.168Z,4.33
2022-12-08T03:29:46.347Z,4.39
2022-12-08T03:39:47.838Z,4.38
2022-12-08T03:49:49.169Z,4.39
2022-12-08T03:59:50.562Z,4.42
2022-12-08T04:09:51.900Z,4.41
2022-12-08T04:19:53.296Z,4.41
2022-12-08T04:29:54.615Z,4.45
2022-12-08T04:39:55.991Z,4.49
2022-12-08T04:49:57.361Z,4.47
2022-12-08T04:59:58.690Z,4.47
2022-12-08T05:10:00.040Z,4.49
2022-12-08T05:20:01.792Z,4.48
2022-12-08T05:30:03.823Z,4.47
2022-12-08T05:40:06.396Z,4.48
2022-12-08T05:50:08.346Z,4.48
2022-12-08T06:00:10.537Z,4.46
2022-12-08T06:10:12.356Z,4.41
2022-12-08T06:20:13.809Z,4.43
2022-12-08T06:30:15.792Z,4.42
2022-12-08T06:40:17.311Z,4.44
2022-12-08T06:50:18.666Z,4.47
2022-12-08T07:00:20.275Z,4.43
2022-12-08T07:10:21.599Z,4.40
2022-12-08T07:20:22.924Z,4.38
2022-12-08T07:30:24.268Z,4.34
2022-12-08T07:40:25.658Z,4.33
2022-12-08T07:50:27.090Z,4.31
2022-12-08T08:00:28.606Z,4.28
2022-12-08T08:10:30.177Z,4.21
2022-12-08T08:20:31.640Z,4.23
2022-12-08T08:30:33.063Z,4.23
2022-12-08T08:40:34.644Z,4.25
2022-12-08T08:50:37.693Z,4.23
2022-12-08T09:00:39.389Z,4.22
2022-12-08T09:10:40.883Z,4.22
2022-12-08T09:20:42.370Z,4.18
2022-12-08T09:30:43.711Z,4.22
2022-12-08T09:40:54.259Z,4.20
2022-12-08T09:50:57.320Z,4.21
2022-12-08T10:00:59.314Z,4.26
2022-12-08T10:11:10.653Z,4.23
2022-12-08T10:21:18.734Z,4.23
2022-12-08T10:31:23.287Z,4.20
2022-12-08T10:41:24.828Z,4.16
2022-12-08T10:51:36.403Z,4.18
2022-12-08T11:01:40.294Z,4.22
2022-12-08T11:12:18.560Z,4.37
2022-12-08T11:22:51.335Z,4.49
2022-12-08T11:33:01.201Z,4.47
2022-12-08T11:43:33.419Z,4.44
2022-12-08T11:53:51.090Z,4.40
2022-12-08T12:03:59.657Z,4.39
2022-12-08T12:14:10.369Z,4.40
2022-12-08T12:24:25.487Z,4.29
2022-12-08T12:34:46.579Z,4.29
2022-12-08T12:45:22.570Z,4.37
2022-12-08T12:55:25.957Z,4.39
2022-12-08T13:05:30.488Z,4.40
2022-12-08T13:15:38.566Z,4.37
2022-12-08T13:25:39.933Z,4.27
2022-12-08T13:35:47.712Z,4.25
2022-12-08T14:06:41.918Z,4.25
2022-12-08T14:16:56.181Z,4.19
2022-12-08T14:27:04.407Z,4.18
2022-12-08T14:37:10.736Z,4.22
2022-12-08T14:47:19.046Z,4.20
2022-12-08T14:57:20.638Z,4.19
2022-12-08T15:07:25.139Z,4.23
2022-12-08T15:17:34.667Z,4.21
2022-12-08T15:27:46.915Z,4.17
2022-12-08T15:37:51.411Z,4.11
2022-12-08T15:47:52.763Z,4.10
2022-12-08T16:08:38.297Z,4.08
2022-12-08T16:18:40.003Z,4.07
2022-12-08T16:28:57.250Z,4.10
2022-12-08T16:38:58.628Z,4.10
2022-12-08T16:49:00.159Z,4.19
2022-12-08T16:59:02.156Z,4.20
2022-12-08T17:09:03.904Z,4.15
2022-12-08T17:19:05.424Z,4.15
2022-12-08T17:29:06.804Z,4.14
2022-12-08T17:39:11.035Z,4.16
2022-12-08T17:49:22.141Z,4.13
2022-12-08T17:59:24.254Z,4.11
2022-12-08T18:09:25.679Z,4.12
2022-12-08T18:19:27.762Z,4.12
2022-12-08T18:29:29.122Z,4.11
2022-12-08T18:39:32.752Z,4.07
2022-12-08T18:49:34.060Z,4.04
2022-12-08T18:59:35.533Z,4.00
2022-12-08T19:09:37.850Z,3.96
2022-12-08T19:19:39.304Z,3.88
2022-12-08T19:29:40.687Z,3.85
2022-12-08T19:40:00.825Z,3.78
2022-12-08T19:50:20.719Z,3.65
2022-12-08T20:00:22.309Z,3.50
2022-12-08T20:10:28.152Z,3.42
2022-12-08T20:20:29.506Z,3.45
2022-12-08T20:30:30.937Z,3.43
2022-12-08T20:40:32.309Z,3.40
2022-12-08T20:50:33.653Z,3.33
2022-12-08T21:00:35.001Z,3.32
2022-12-08T21:10:42.186Z,3.38
2022-12-08T21:20:45.786Z,3.38
2022-12-08T21:30:47.193Z,3.40
2022-12-08T21:40:49.759Z,3.43
2022-12-08T21:50:51.227Z,3.43
2022-12-08T22:00:52.709Z,3.51
2022-12-08T22:10:54.361Z,3.53
2022-12-08T22:20:55.903Z,3.50
2022-12-08T22:30:57.463Z,3.47
2022-12-08T22:40:58.939Z,3.48
2022-12-08T22:51:00.673Z,3.47
2022-12-08T23:01:02.320Z,3.48
2022-12-08T23:11:03.976Z,3.45
2022-12-08T23:21:11.576Z,3.52
2022-12-08T23:31:13.228Z,3.46
2022-12-08T23:41:15.669Z,3.46
2022-12-08T23:51:17.909Z,3.43
